Accueil
METAR-TAF:

METAR-TAF

Aéroports :

Aéroport de Rennes

Rennes, France

latitude: 48-04N, longitude: 001-44W, altitude: 37 m

Observation

Le bulletin a été fait il y a 28 minutes, à 21:00 UTC
Vent 1 kt de nord/nord-est
Température 10°C
Humidité 87%
Pression 1030 hPa
Visibilité 10 km ou plus
pas de nuages en-dessous de 1500 mètres et pas de cumulonimbus.

METAR: LFRN 062100Z AUTO 02001KT CAVOK 10/08 Q1030 NOSIG

Heure: 23:28 (21:28 UTC)

Prévision

Le bulletin a été fait il y a 4 heures et 28 minutes, à 17:00 UTC
Prévision valable du 06 à 18 UTC au 07 à 18 UTC
Vent 3 kt de direction variable
Visibilité 10 km ou plus
pas de nuages en-dessous de 1500 mètres et pas de cumulonimbus.
Temporairement
du 07 à 00 UTC au 07 à 08 UTC
Visibilité: 3000 m
brume
Probabilité 40% :
Temporairement
du 07 à 04 UTC au 07 à 07 UTC
Visibilité: 0500 m
brouillard

TAF: LFRN 061700Z 0618/0718 VRB03KT CAVOK TEMPO 0700/0708 3000 BR PROB40 TEMPO 0704/0707 0500 FG

Observations et prévisions météorologiques de plus de 4000 aéroports (messages METAR et TAF).

Les stations disponibles sont représentées par des disques jaunes et rouges sur la carte.

Passer la souris dessus pour voir le nom de la station.

Cliquer dessus pour voir les observations et prévisions météorologiques.

Pour changer de carte: cliquez sur les boutons verts avec une croix noire pour zoomer, sur le bouton vert avec un tiret pour effectuer un zoom arrière, ou sur les flèches vertes pour les cartes adjacentes.


METAR-TAF: